createdAt,value
2018-06-15T00:01:13.806Z,83.49
2018-06-15T00:03:43.039Z,83.66
2018-06-15T00:06:12.210Z,83.20
2018-06-15T00:08:41.423Z,82.86
2018-06-15T00:11:10.678Z,82.79
2018-06-15T00:13:39.918Z,83.32
2018-06-15T00:16:09.144Z,83.50
2018-06-15T00:18:38.346Z,84.14
2018-06-15T00:21:07.551Z,83.63
2018-06-15T00:23:36.781Z,83.49
2018-06-15T00:26:05.722Z,83.61
2018-06-15T00:28:34.982Z,82.90
2018-06-15T00:31:04.249Z,82.79
2018-06-15T00:33:33.470Z,84.77
2018-06-15T00:36:02.715Z,84.07
2018-06-15T00:38:31.952Z,84.71
2018-06-15T00:41:01.159Z,85.44
2018-06-15T00:43:30.435Z,85.87
2018-06-15T00:45:59.621Z,86.37
2018-06-15T00:48:28.856Z,86.08
2018-06-15T00:50:58.060Z,86.51
2018-06-15T00:53:27.255Z,86.20
2018-06-15T00:55:56.432Z,86.05
2018-06-15T00:58:25.624Z,85.96
2018-06-15T01:00:54.863Z,85.82
2018-06-15T01:03:24.141Z,85.42
2018-06-15T01:05:53.386Z,85.08
2018-06-15T01:08:22.599Z,84.11
2018-06-15T01:10:51.762Z,84.54
2018-06-15T01:13:20.939Z,84.26
2018-06-15T01:15:50.198Z,85.14
2018-06-15T01:18:19.391Z,85.49
2018-06-15T01:20:48.610Z,86.02
2018-06-15T01:23:17.844Z,86.65
2018-06-15T01:25:47.119Z,87.51
2018-06-15T01:28:16.355Z,87.50
2018-06-15T01:30:45.638Z,88.08
2018-06-15T01:33:14.879Z,88.36
2018-06-15T01:35:44.180Z,88.60
2018-06-15T01:38:13.409Z,89.13
2018-06-15T01:40:42.657Z,89.17
2018-06-15T01:43:11.906Z,89.54
2018-06-15T01:45:41.088Z,89.72
2018-06-15T01:48:10.276Z,90.04
2018-06-15T01:50:39.499Z,89.55
2018-06-15T01:53:08.894Z,89.18
2018-06-15T01:55:38.514Z,89.68
2018-06-15T01:58:07.775Z,88.65
2018-06-15T02:00:37.033Z,89.45
2018-06-15T02:03:06.239Z,89.60
2018-06-15T02:05:35.452Z,89.35
2018-06-15T02:08:04.714Z,87.99
2018-06-15T02:10:33.957Z,87.91
2018-06-15T02:13:03.212Z,87.92
2018-06-15T02:15:32.536Z,88.16
2018-06-15T02:18:01.801Z,88.16
2018-06-15T02:20:31.058Z,87.87
2018-06-15T02:23:00.571Z,87.54
2018-06-15T02:25:29.915Z,88.01
2018-06-15T02:27:59.239Z,88.21
2018-06-15T02:30:28.478Z,87.71
2018-06-15T02:32:57.757Z,88.19
2018-06-15T02:35:27.004Z,87.79
2018-06-15T02:37:56.216Z,88.17
2018-06-15T02:40:25.495Z,87.67
2018-06-15T02:42:54.861Z,87.62
2018-06-15T02:45:23.978Z,87.66
2018-06-15T02:47:53.159Z,87.60
2018-06-15T02:50:22.420Z,88.05
2018-06-15T02:52:51.659Z,88.19
2018-06-15T02:55:20.887Z,88.62
2018-06-15T02:57:50.156Z,88.46
2018-06-15T03:00:19.529Z,88.82
2018-06-15T03:02:48.798Z,89.02
2018-06-15T03:05:18.130Z,89.21
2018-06-15T03:07:47.452Z,88.77
2018-06-15T03:10:16.806Z,89.28
2018-06-15T03:12:46.146Z,88.78
2018-06-15T03:15:15.430Z,88.71
2018-06-15T03:17:44.740Z,88.69
2018-06-15T03:20:13.968Z,88.82
2018-06-15T03:22:43.243Z,89.49
2018-06-15T03:25:12.477Z,90.54
2018-06-15T03:27:41.700Z,90.54
2018-06-15T03:30:10.911Z,89.98
2018-06-15T03:32:40.162Z,89.96
2018-06-15T03:35:09.331Z,89.89
2018-06-15T03:37:38.597Z,89.56
2018-06-15T03:40:07.762Z,90.13
2018-06-15T03:42:37.041Z,90.75
2018-06-15T03:45:06.576Z,90.69
2018-06-15T03:47:35.829Z,90.58
2018-06-15T03:50:05.138Z,90.13
2018-06-15T03:52:34.356Z,89.44
2018-06-15T03:55:04.596Z,89.47
2018-06-15T03:57:33.814Z,90.20
2018-06-15T04:00:03.120Z,90.77
2018-06-15T04:02:32.367Z,90.58
2018-06-15T04:05:01.633Z,90.75
2018-06-15T04:07:31.193Z,90.09
2018-06-15T04:10:00.363Z,90.16
2018-06-15T04:12:29.661Z,89.82
2018-06-15T04:14:58.890Z,90.36
2018-06-15T04:17:28.126Z,90.88
2018-06-15T04:19:57.346Z,91.17
2018-06-15T04:22:26.566Z,91.01
2018-06-15T04:24:55.813Z,91.44
2018-06-15T04:27:25.039Z,91.56
2018-06-15T04:29:54.278Z,90.44
2018-06-15T04:32:23.564Z,90.86
2018-06-15T04:34:52.839Z,90.04
2018-06-15T04:37:22.052Z,90.35
2018-06-15T04:39:51.311Z,89.64
2018-06-15T04:42:20.526Z,87.54
2018-06-15T04:44:49.854Z,88.08
2018-06-15T04:47:19.097Z,86.19
2018-06-15T04:49:48.404Z,85.42
2018-06-15T04:52:17.456Z,85.90
2018-06-15T04:54:46.817Z,84.89
2018-06-15T04:57:16.093Z,84.85
2018-06-15T04:59:45.384Z,85.18
2018-06-15T05:02:14.664Z,84.62
2018-06-15T05:04:43.932Z,84.47
2018-06-15T05:07:13.139Z,82.79
2018-06-15T05:09:42.363Z,83.42
2018-06-15T05:12:11.563Z,83.25
2018-06-15T05:14:40.847Z,82.23
2018-06-15T05:17:10.280Z,81.84
2018-06-15T05:19:39.530Z,80.95
2018-06-15T05:22:08.918Z,81.40
2018-06-15T05:24:38.342Z,81.11
2018-06-15T05:27:08.134Z,77.40
2018-06-15T05:29:37.374Z,78.40
2018-06-15T05:32:06.842Z,77.49
2018-06-15T05:34:35.925Z,77.39
2018-06-15T05:37:05.312Z,78.27
2018-06-15T05:39:34.615Z,76.98
2018-06-15T05:42:03.916Z,77.28
2018-06-15T05:44:33.235Z,76.77
2018-06-15T05:47:02.629Z,77.73
2018-06-15T05:49:31.935Z,80.38
2018-06-15T05:52:01.321Z,78.86
2018-06-15T05:54:30.712Z,77.95
2018-06-15T05:57:00.031Z,77.45
2018-06-15T05:59:29.315Z,77.18
2018-06-15T06:01:58.696Z,77.77
2018-06-15T06:04:28.000Z,76.74
2018-06-15T06:06:57.294Z,76.53
2018-06-15T06:09:26.598Z,76.94
2018-06-15T06:11:55.936Z,75.79
2018-06-15T06:14:25.250Z,75.94
2018-06-15T06:16:54.527Z,77.06
2018-06-15T06:19:23.804Z,73.47
2018-06-15T06:21:53.093Z,74.89
2018-06-15T06:24:22.552Z,73.94
2018-06-15T06:26:51.942Z,72.42
2018-06-15T06:29:21.292Z,70.84
2018-06-15T06:31:50.682Z,70.03
2018-06-15T06:34:20.103Z,70.67
2018-06-15T06:36:49.452Z,70.54
2018-06-15T06:39:18.986Z,70.08
2018-06-15T06:41:48.326Z,69.17
2018-06-15T06:44:17.741Z,68.04
2018-06-15T06:46:47.249Z,64.72
2018-06-15T06:49:16.554Z,65.17
2018-06-15T06:51:46.035Z,64.49
2018-06-15T06:54:15.141Z,64.71
2018-06-15T06:56:44.562Z,63.99
2018-06-15T06:59:13.888Z,64.96
2018-06-15T07:01:43.269Z,65.45
2018-06-15T07:04:12.397Z,62.91
2018-06-15T07:06:41.682Z,64.26
2018-06-15T07:09:10.727Z,64.25
2018-06-15T07:11:40.093Z,63.31
2018-06-15T07:14:09.371Z,65.60
2018-06-15T07:16:38.701Z,65.56
2018-06-15T07:19:08.048Z,62.96
2018-06-15T07:21:37.706Z,63.05
2018-06-15T07:24:07.034Z,63.40
2018-06-15T07:26:36.476Z,61.48
2018-06-15T07:29:05.928Z,61.40
2018-06-15T07:31:35.355Z,59.74
2018-06-15T07:34:04.699Z,59.80
2018-06-15T07:36:34.157Z,61.43
2018-06-15T07:39:03.798Z,62.74
2018-06-15T07:41:33.170Z,62.54
2018-06-15T07:44:02.624Z,62.46
2018-06-15T07:46:31.997Z,62.91
2018-06-15T07:49:01.322Z,63.11
2018-06-15T07:51:30.663Z,63.10
2018-06-15T07:53:59.954Z,62.33
2018-06-15T07:56:29.408Z,61.79
2018-06-15T07:58:58.730Z,60.19
2018-06-15T08:01:28.076Z,62.26
2018-06-15T08:04:02.342Z,59.86
2018-06-15T08:06:32.002Z,59.90
2018-06-15T08:09:01.823Z,58.86
2018-06-15T08:11:31.226Z,58.67
2018-06-15T08:14:00.472Z,59.32
2018-06-15T08:16:29.914Z,59.37
2018-06-15T08:18:59.202Z,61.27
2018-06-15T08:21:28.887Z,57.70
2018-06-15T08:23:58.134Z,59.39
2018-06-15T08:26:27.358Z,57.40
2018-06-15T08:28:56.611Z,57.45
2018-06-15T08:31:25.554Z,55.93
2018-06-15T08:33:54.944Z,57.37
2018-06-15T08:36:24.154Z,57.82
2018-06-15T08:38:53.360Z,57.91
2018-06-15T08:41:22.591Z,57.36
2018-06-15T08:43:51.849Z,59.42
2018-06-15T08:46:21.055Z,57.90
2018-06-15T08:48:50.315Z,58.23
2018-06-15T08:51:19.771Z,58.20
2018-06-15T08:53:49.060Z,56.22
2018-06-15T08:56:18.318Z,56.52
2018-06-15T08:58:47.630Z,55.04
2018-06-15T09:01:16.925Z,55.05
2018-06-15T09:03:46.269Z,53.81
2018-06-15T09:06:15.566Z,51.42
2018-06-15T09:08:44.917Z,52.30
2018-06-15T09:11:14.168Z,54.62
2018-06-15T09:13:43.627Z,54.13
2018-06-15T09:16:12.851Z,53.17
2018-06-15T09:18:41.809Z,53.90
2018-06-15T09:21:11.050Z,52.58
2018-06-15T09:23:40.321Z,52.82
2018-06-15T09:26:09.593Z,53.98
2018-06-15T09:28:38.874Z,53.23
2018-06-15T09:31:08.196Z,50.59
2018-06-15T09:33:37.539Z,48.53
2018-06-15T09:36:06.786Z,48.16
2018-06-15T09:38:36.048Z,47.25
2018-06-15T09:41:05.331Z,47.68
2018-06-15T09:43:34.570Z,47.38
2018-06-15T09:46:03.863Z,47.71
2018-06-15T09:48:33.154Z,49.26
2018-06-15T09:51:02.446Z,50.28
2018-06-15T09:53:31.747Z,46.68
2018-06-15T09:56:01.138Z,46.53
2018-06-15T09:58:30.392Z,46.36
2018-06-15T10:01:04.862Z,44.32
2018-06-15T10:03:34.078Z,41.86
2018-06-15T10:06:03.600Z,42.85
2018-06-15T10:08:33.144Z,41.03
2018-06-15T10:11:02.428Z,41.65
2018-06-15T10:13:31.698Z,43.87
2018-06-15T10:16:01.075Z,42.42
2018-06-15T10:18:30.297Z,43.96
2018-06-15T10:20:59.600Z,43.27
2018-06-15T10:23:29.816Z,43.76
2018-06-15T10:25:59.038Z,44.12
2018-06-15T10:28:28.022Z,43.93
2018-06-15T10:30:57.189Z,44.17
2018-06-15T10:33:26.422Z,44.40
2018-06-15T10:35:55.696Z,43.67
2018-06-15T10:38:24.705Z,42.90
2018-06-15T10:40:53.911Z,43.94
2018-06-15T10:43:23.141Z,42.36
2018-06-15T10:45:52.383Z,42.53
2018-06-15T10:48:21.603Z,44.97
2018-06-15T10:50:50.847Z,42.30
2018-06-15T10:53:20.080Z,42.57
2018-06-15T10:55:49.353Z,42.31
2018-06-15T10:58:18.570Z,45.05
2018-06-15T11:00:47.899Z,44.53
2018-06-15T11:03:17.242Z,43.79
2018-06-15T11:05:46.551Z,44.17
2018-06-15T11:08:15.825Z,45.59
2018-06-15T11:10:45.127Z,47.13
2018-06-15T11:13:14.483Z,46.72
2018-06-15T11:15:43.815Z,45.75
2018-06-15T11:18:13.077Z,42.92
2018-06-15T11:20:42.400Z,42.76
2018-06-15T11:23:11.636Z,41.46
2018-06-15T11:25:40.924Z,42.54
2018-06-15T11:28:10.176Z,39.90
2018-06-15T11:30:39.419Z,40.55
2018-06-15T11:33:08.646Z,41.27
2018-06-15T11:35:37.992Z,41.34
2018-06-15T11:38:07.259Z,40.12
2018-06-15T11:40:36.495Z,41.58
2018-06-15T11:43:05.923Z,40.58
2018-06-15T11:45:35.267Z,41.67
2018-06-15T11:48:04.586Z,42.29
2018-06-15T11:50:33.907Z,39.69
2018-06-15T11:53:03.151Z,41.29
2018-06-15T11:55:32.454Z,40.31
2018-06-15T11:58:01.739Z,40.74
2018-06-15T12:00:31.018Z,40.38
2018-06-15T12:03:00.247Z,40.42
2018-06-15T12:05:29.454Z,41.30
2018-06-15T12:07:58.716Z,41.93
2018-06-15T12:10:28.196Z,40.10
2018-06-15T12:12:57.438Z,40.77
2018-06-15T12:15:26.770Z,41.29
2018-06-15T12:17:56.824Z,41.49
2018-06-15T12:20:26.066Z,41.32
2018-06-15T12:22:55.367Z,40.81
2018-06-15T12:25:24.704Z,41.85
2018-06-15T12:27:54.003Z,39.80
2018-06-15T12:30:23.361Z,37.82
2018-06-15T12:32:52.597Z,39.07
2018-06-15T12:35:21.864Z,37.96
2018-06-15T12:37:51.111Z,38.16
2018-06-15T12:40:20.348Z,38.20
2018-06-15T12:42:49.620Z,39.53
2018-06-15T12:45:18.854Z,38.57
2018-06-15T12:47:48.189Z,39.96
2018-06-15T12:50:17.515Z,38.71
2018-06-15T12:52:46.766Z,37.66
2018-06-15T12:55:16.049Z,37.96
2018-06-15T12:57:45.419Z,37.44
2018-06-15T13:00:15.253Z,38.05
2018-06-15T13:02:44.695Z,36.32
2018-06-15T13:05:13.673Z,36.17
2018-06-15T13:07:42.933Z,37.10
2018-06-15T13:10:12.167Z,36.66
2018-06-15T13:12:41.421Z,35.86
2018-06-15T13:15:10.430Z,39.55
2018-06-15T13:17:39.718Z,39.04
2018-06-15T13:20:08.939Z,42.33
2018-06-15T13:22:37.933Z,40.94
2018-06-15T13:25:07.219Z,41.74
2018-06-15T13:27:36.657Z,41.36
2018-06-15T13:30:06.075Z,42.76
2018-06-15T13:32:35.342Z,41.19
2018-06-15T13:35:04.387Z,39.80
2018-06-15T13:37:34.855Z,39.75
2018-06-15T13:40:06.286Z,38.81
2018-06-15T13:42:36.998Z,39.40
2018-06-15T13:45:08.616Z,40.54
2018-06-15T13:47:39.404Z,41.82
2018-06-15T13:50:10.367Z,42.07
2018-06-15T13:52:42.052Z,41.46
2018-06-15T13:55:12.553Z,41.97
2018-06-15T13:57:41.994Z,42.09
2018-06-15T14:00:14.498Z,40.65
2018-06-15T14:02:44.623Z,39.55
2018-06-15T14:05:14.752Z,41.52
2018-06-15T14:07:44.824Z,41.33
2018-06-15T14:10:14.175Z,40.64
2018-06-15T14:12:46.597Z,40.48
2018-06-15T14:15:17.188Z,37.97
2018-06-15T14:17:47.276Z,39.29
2018-06-15T14:20:17.694Z,39.14
2018-06-15T14:22:48.604Z,40.05
2018-06-15T14:25:18.065Z,40.46
2018-06-15T14:27:48.850Z,40.86
2018-06-15T14:30:20.224Z,38.33
2018-06-15T14:32:49.749Z,38.47
2018-06-15T14:35:21.338Z,37.26
2018-06-15T14:37:51.817Z,37.21
2018-06-15T14:40:22.334Z,38.07
2018-06-15T14:42:51.591Z,39.17
2018-06-15T14:45:21.527Z,38.12
2018-06-15T14:47:51.723Z,37.00
2018-06-15T14:50:20.974Z,35.49
2018-06-15T14:52:51.254Z,35.63
2018-06-15T14:55:23.272Z,38.72
2018-06-15T14:57:53.575Z,38.75
2018-06-15T15:00:24.298Z,40.38
2018-06-15T15:02:54.507Z,40.43
2018-06-15T15:05:25.648Z,39.51
2018-06-15T15:10:35.704Z,39.18
2018-06-15T15:13:05.548Z,38.01
2018-06-15T15:15:34.821Z,37.44
2018-06-15T15:18:04.377Z,39.11
2018-06-15T15:20:34.242Z,36.53
2018-06-15T15:23:03.613Z,36.20
2018-06-15T15:25:33.071Z,37.02
2018-06-15T15:28:02.331Z,36.78
2018-06-15T15:30:31.571Z,36.82
2018-06-15T15:33:00.825Z,38.09
2018-06-15T15:35:30.043Z,36.65
2018-06-15T15:37:59.266Z,36.52
2018-06-15T15:40:28.524Z,36.52
2018-06-15T15:42:57.781Z,35.80
2018-06-15T15:45:27.107Z,37.28
2018-06-15T15:47:56.399Z,38.37
2018-06-15T15:50:25.726Z,38.92
2018-06-15T15:52:55.008Z,39.68
2018-06-15T15:55:24.247Z,39.22
2018-06-15T15:57:53.551Z,40.97
2018-06-15T16:00:22.746Z,38.76
2018-06-15T16:02:51.963Z,40.11
2018-06-15T16:05:21.216Z,38.43
2018-06-15T16:07:50.198Z,38.72
2018-06-15T16:10:19.458Z,38.96
2018-06-15T16:12:48.757Z,39.62
2018-06-15T16:15:18.038Z,38.88
2018-06-15T16:17:47.322Z,39.62
2018-06-15T16:20:16.648Z,40.75
2018-06-15T16:22:45.853Z,40.28
2018-06-15T16:25:15.395Z,41.52
2018-06-15T16:27:44.634Z,42.46
2018-06-15T16:30:13.873Z,42.86
2018-06-15T16:32:43.111Z,43.05
2018-06-15T16:35:12.361Z,43.02
2018-06-15T16:37:41.593Z,42.01
2018-06-15T16:40:10.821Z,41.86
2018-06-15T16:42:40.032Z,41.93
2018-06-15T16:45:09.239Z,41.72
2018-06-15T16:47:38.479Z,41.33
2018-06-15T16:50:07.748Z,39.64
2018-06-15T16:52:37.016Z,37.05
2018-06-15T16:55:06.370Z,38.30
2018-06-15T16:57:35.647Z,35.99
2018-06-15T17:00:05.389Z,35.84
2018-06-15T17:02:34.751Z,35.50
2018-06-15T17:05:03.998Z,35.35
2018-06-15T17:07:33.249Z,36.43
2018-06-15T17:10:02.478Z,35.98
2018-06-15T17:12:31.702Z,35.42
2018-06-15T17:15:00.940Z,34.95
2018-06-15T17:17:30.179Z,35.10
2018-06-15T17:19:59.621Z,38.53
2018-06-15T17:22:28.921Z,39.27
2018-06-15T17:24:58.172Z,40.89
2018-06-15T17:27:27.454Z,42.11
2018-06-15T17:29:56.425Z,42.71
2018-06-15T17:32:27.794Z,42.81
2018-06-15T17:35:30.249Z,43.12
2018-06-15T17:38:03.602Z,42.50
2018-06-15T17:40:32.770Z,44.21
2018-06-15T17:43:02.078Z,44.66
2018-06-15T17:45:31.387Z,44.81
2018-06-15T17:48:00.602Z,42.61
2018-06-15T17:50:29.842Z,43.33
2018-06-15T17:52:59.110Z,43.62
2018-06-15T17:55:28.359Z,43.61
2018-06-15T17:57:57.599Z,43.23
2018-06-15T18:00:26.941Z,44.40
2018-06-15T18:02:56.311Z,44.28
2018-06-15T18:05:25.558Z,44.72
2018-06-15T18:07:54.732Z,45.41
2018-06-15T18:10:23.966Z,45.42
2018-06-15T18:12:53.227Z,45.47
2018-06-15T18:15:22.476Z,45.71
2018-06-15T18:17:51.733Z,45.33
2018-06-15T18:20:20.991Z,45.58
2018-06-15T18:22:50.308Z,44.31
2018-06-15T18:25:19.326Z,44.99
2018-06-15T18:27:48.604Z,45.33
2018-06-15T18:30:17.910Z,45.68
2018-06-15T18:32:47.287Z,46.61
2018-06-15T18:35:16.595Z,47.26
2018-06-15T18:37:45.878Z,47.29
2018-06-15T18:40:14.951Z,48.17
2018-06-15T18:42:44.162Z,48.26
2018-06-15T18:45:13.410Z,48.48
2018-06-15T18:47:42.660Z,48.56
2018-06-15T18:50:11.929Z,48.93
2018-06-15T18:52:41.147Z,49.06
2018-06-15T18:55:10.463Z,49.51
2018-06-15T18:57:39.710Z,50.01
2018-06-15T19:00:09.028Z,50.47
2018-06-15T19:02:38.363Z,51.09
2018-06-15T19:05:07.698Z,50.77
2018-06-15T19:07:36.953Z,51.22
2018-06-15T19:10:06.235Z,51.42
2018-06-15T19:12:35.242Z,51.59
2018-06-15T19:15:04.895Z,52.75
2018-06-15T19:17:34.101Z,53.06
2018-06-15T19:20:03.504Z,53.47
2018-06-15T19:22:32.778Z,54.70
2018-06-15T19:25:02.110Z,59.03
2018-06-15T19:27:31.365Z,61.01
2018-06-15T19:30:00.693Z,61.97
2018-06-15T19:32:29.908Z,63.24
2018-06-15T19:34:59.146Z,63.88
2018-06-15T19:37:28.393Z,64.23
2018-06-15T19:40:54.767Z,64.99
2018-06-15T19:46:52.123Z,64.79
2018-06-15T19:49:51.759Z,66.08
2018-06-15T19:52:21.237Z,67.59
2018-06-15T19:54:50.559Z,68.38
2018-06-15T19:57:19.815Z,69.45
2018-06-15T19:59:49.110Z,69.40
2018-06-15T20:02:18.352Z,69.74
2018-06-15T20:04:47.608Z,69.28
2018-06-15T20:07:17.024Z,68.12
2018-06-15T20:09:46.405Z,68.64
2018-06-15T20:12:15.703Z,69.33
2018-06-15T20:14:45.046Z,70.04
2018-06-15T20:17:14.303Z,69.73
2018-06-15T20:19:43.572Z,70.31
2018-06-15T20:22:12.561Z,70.63
2018-06-15T20:24:41.851Z,70.29
2018-06-15T20:27:11.073Z,70.42
2018-06-15T20:29:40.279Z,70.68
2018-06-15T20:32:09.518Z,71.13
2018-06-15T20:34:38.701Z,72.10
2018-06-15T20:37:08.020Z,71.88
2018-06-15T20:39:37.256Z,72.22
2018-06-15T20:42:06.595Z,71.54
2018-06-15T20:44:35.818Z,71.33
2018-06-15T20:47:05.060Z,72.22
2018-06-15T20:49:34.306Z,73.20
2018-06-15T20:52:03.567Z,74.14
2018-06-15T20:54:32.778Z,74.53
2018-06-15T20:57:02.167Z,74.92
2018-06-15T20:59:31.466Z,74.60
2018-06-15T21:02:00.727Z,74.08
2018-06-15T21:04:29.934Z,73.80
2018-06-15T21:06:59.195Z,73.51
2018-06-15T21:09:28.399Z,73.50
2018-06-15T21:11:57.610Z,74.25
2018-06-15T21:14:26.903Z,74.00
2018-06-15T21:16:57.023Z,74.44
2018-06-15T21:19:26.219Z,74.63
2018-06-15T21:21:55.467Z,75.05
2018-06-15T21:24:24.723Z,75.60
2018-06-15T21:26:53.906Z,76.02
2018-06-15T21:29:23.196Z,75.80
2018-06-15T21:31:52.427Z,76.12
2018-06-15T21:34:21.641Z,76.82
2018-06-15T21:36:50.885Z,77.34
2018-06-15T21:39:20.106Z,77.79
2018-06-15T21:41:49.323Z,77.79
2018-06-15T21:44:18.576Z,78.34
2018-06-15T21:46:47.852Z,79.18
2018-06-15T21:49:17.104Z,78.96
2018-06-15T21:51:46.357Z,79.11
2018-06-15T21:54:15.602Z,79.47
2018-06-15T21:56:44.890Z,80.12
2018-06-15T21:59:14.117Z,80.68
2018-06-15T22:01:43.348Z,80.26
2018-06-15T22:04:12.708Z,80.68
2018-06-15T22:06:41.962Z,80.87
2018-06-15T22:09:11.163Z,80.50
2018-06-15T22:11:40.364Z,80.27
2018-06-15T22:14:09.582Z,81.31
2018-06-15T22:16:43.975Z,81.21
2018-06-15T22:19:13.390Z,81.49
2018-06-15T22:21:42.595Z,81.48
2018-06-15T22:24:11.629Z,81.30
2018-06-15T22:26:40.893Z,81.34
2018-06-15T22:29:10.111Z,80.82
2018-06-15T22:31:39.626Z,81.42
2018-06-15T22:34:08.846Z,82.43
2018-06-15T22:36:38.101Z,82.61
2018-06-15T22:39:14.779Z,82.33
2018-06-15T22:41:44.271Z,82.02
2018-06-15T22:44:14.338Z,82.69
2018-06-15T22:46:43.714Z,83.09
2018-06-15T22:49:12.992Z,83.67
2018-06-15T22:51:42.257Z,84.16
2018-06-15T22:54:11.463Z,84.18
2018-06-15T22:56:40.433Z,84.62
2018-06-15T22:59:09.647Z,84.88
2018-06-15T23:01:38.834Z,85.54
2018-06-15T23:04:08.030Z,85.84
2018-06-15T23:06:37.226Z,85.54
2018-06-15T23:09:09.134Z,85.90
2018-06-15T23:11:38.460Z,86.05
2018-06-15T23:14:07.701Z,86.64
2018-06-15T23:16:36.915Z,86.55
2018-06-15T23:19:06.178Z,87.10
2018-06-15T23:21:35.387Z,87.05
2018-06-15T23:24:04.547Z,86.67
2018-06-15T23:26:33.872Z,87.00
2018-06-15T23:29:03.104Z,87.10
2018-06-15T23:31:32.359Z,87.69
2018-06-15T23:34:01.545Z,87.84
2018-06-15T23:36:30.766Z,88.02
2018-06-15T23:38:59.939Z,87.91
2018-06-15T23:41:29.167Z,87.46
2018-06-15T23:43:58.383Z,88.39
2018-06-15T23:46:27.590Z,88.84
2018-06-15T23:48:56.802Z,88.92
2018-06-15T23:51:26.069Z,88.76
2018-06-15T23:53:55.287Z,89.21
2018-06-15T23:56:24.581Z,89.71
2018-06-15T23:58:53.797Z,89.69
